Woodsburgh, New York
Current Conditions -  °F | °C
As of 11:21 AM on Monday 26 Jan 2015 (Local Time) from KJFK Reporting Station
Light Snow Light Snow  
Wind Chill: 12°   Ceiling: 1900
Heat Index: 27°   Visibility: 7mi
Dew Point: 19°   Wind: 22mph
Humidity: 74%   Direction: 30°NNE
Pressure: 29.97"   Gusts: NA
Location:  40.632°N, 73.7113°W
Report Text: KJFK 261621Z 03019KT 7SM -SN FEW012 OVC019 M03/M07 A2997 RMK AO2 PK WND 04026/1608 P0000
Loading
Personal Weather Stations






























Interactive Weather Map New forecast layout! Learn more

10-Day Weather Forecast

Advertisements
Track Severe Weather on mobile